Redvers, Canada
Current Conditions -  °F | °C
As of 11:00 PM on Tuesday 25 Nov 2014 (Local Time) from CYEN Reporting Station
Light Snow Light Snow  
Wind Chill: 12°   Ceiling: 1400
Heat Index: 12°   Visibility: 5mi
Dew Point:   Wind: 3mph
Humidity: 85%   Direction: 170°S
Pressure: 30.17"   Gusts: NA
Location:  49.57°N, 101.7°W
Report Text: CYEN 260500Z 17003KT 5SM -SN OVC014 M11/M13 A3017 RMK SC8SLP257
Loading
Personal Weather Stations






























Interactive Weather Map New forecast layout! Learn more

10-Day Weather Forecast

Advertisements
Track Severe Weather on mobile